sensor_id;sensor_type;location;lat;lon;timestamp;P1;durP1;ratioP1;P2;durP2;ratioP2
63193;SDS011;49289;51.670;5.624;2022-12-18T00:00:09;46.40;;;20.70;;
63193;SDS011;49289;51.670;5.624;2022-12-18T00:01:57;44.40;;;20.70;;
63193;SDS011;49289;51.670;5.624;2022-12-18T00:03:44;48.10;;;21.90;;
63193;SDS011;49289;51.670;5.624;2022-12-18T00:05:31;45.20;;;21.00;;
63193;SDS011;49289;51.670;5.624;2022-12-18T00:07:18;43.40;;;20.90;;
63193;SDS011;49289;51.670;5.624;2022-12-18T00:09:05;42.70;;;21.10;;
63193;SDS011;49289;51.670;5.624;2022-12-18T00:10:53;44.90;;;21.10;;
63193;SDS011;49289;51.670;5.624;2022-12-18T00:12:42;51.20;;;21.60;;
63193;SDS011;49289;51.670;5.624;2022-12-18T00:14:30;47.80;;;21.70;;
63193;SDS011;49289;51.670;5.624;2022-12-18T00:16:18;46.00;;;20.20;;
63193;SDS011;49289;51.670;5.624;2022-12-18T00:18:04;46.70;;;21.10;;
63193;SDS011;49289;51.670;5.624;2022-12-18T00:19:51;41.90;;;19.50;;
63193;SDS011;49289;51.670;5.624;2022-12-18T00:21:38;44.40;;;21.40;;
63193;SDS011;49289;51.670;5.624;2022-12-18T00:23:25;43.40;;;20.60;;
63193;SDS011;49289;51.670;5.624;2022-12-18T00:25:13;46.30;;;20.90;;
63193;SDS011;49289;51.670;5.624;2022-12-18T00:27:00;46.40;;;21.60;;
63193;SDS011;49289;51.670;5.624;2022-12-18T00:28:47;49.50;;;21.90;;
63193;SDS011;49289;51.670;5.624;2022-12-18T00:30:34;46.50;;;21.70;;
63193;SDS011;49289;51.670;5.624;2022-12-18T00:32:21;45.30;;;20.40;;
63193;SDS011;49289;51.670;5.624;2022-12-18T00:34:08;47.10;;;21.80;;
63193;SDS011;49289;51.670;5.624;2022-12-18T00:35:56;45.80;;;21.50;;
63193;SDS011;49289;51.670;5.624;2022-12-18T00:37:47;42.40;;;20.80;;
63193;SDS011;49289;51.670;5.624;2022-12-18T00:39:35;45.20;;;21.20;;
63193;SDS011;49289;51.670;5.624;2022-12-18T00:41:24;45.50;;;20.50;;
63193;SDS011;49289;51.670;5.624;2022-12-18T00:43:11;44.60;;;20.60;;
63193;SDS011;49289;51.670;5.624;2022-12-18T00:44:59;48.20;;;21.50;;
63193;SDS011;49289;51.670;5.624;2022-12-18T00:46:48;49.40;;;21.90;;
63193;SDS011;49289;51.670;5.624;2022-12-18T00:48:36;43.70;;;21.30;;
63193;SDS011;49289;51.670;5.624;2022-12-18T00:50:24;45.90;;;21.70;;
63193;SDS011;49289;51.670;5.624;2022-12-18T00:52:10;44.80;;;21.70;;
63193;SDS011;49289;51.670;5.624;2022-12-18T00:53:57;47.10;;;21.50;;
63193;SDS011;49289;51.670;5.624;2022-12-18T00:55:46;47.20;;;21.50;;
63193;SDS011;49289;51.670;5.624;2022-12-18T00:57:33;48.20;;;21.90;;
63193;SDS011;49289;51.670;5.624;2022-12-18T00:59:21;50.40;;;23.10;;
63193;SDS011;49289;51.670;5.624;2022-12-18T01:01:10;48.30;;;22.20;;
63193;SDS011;49289;51.670;5.624;2022-12-18T01:02:57;46.80;;;21.40;;
63193;SDS011;49289;51.670;5.624;2022-12-18T01:04:44;46.20;;;21.40;;
63193;SDS011;49289;51.670;5.624;2022-12-18T01:06:31;46.00;;;21.10;;
63193;SDS011;49289;51.670;5.624;2022-12-18T01:08:18;43.90;;;21.60;;
63193;SDS011;49289;51.670;5.624;2022-12-18T01:10:05;47.20;;;21.80;;
63193;SDS011;49289;51.670;5.624;2022-12-18T01:11:54;44.10;;;21.10;;
63193;SDS011;49289;51.670;5.624;2022-12-18T01:13:43;49.10;;;23.20;;
63193;SDS011;49289;51.670;5.624;2022-12-18T01:15:31;46.10;;;21.80;;
63193;SDS011;49289;51.670;5.624;2022-12-18T01:17:19;47.00;;;22.80;;
63193;SDS011;49289;51.670;5.624;2022-12-18T01:19:06;47.70;;;22.30;;
63193;SDS011;49289;51.670;5.624;2022-12-18T01:20:53;48.70;;;21.70;;
63193;SDS011;49289;51.670;5.624;2022-12-18T01:22:40;41.90;;;21.30;;
63193;SDS011;49289;51.670;5.624;2022-12-18T01:24:27;43.70;;;21.30;;
63193;SDS011;49289;51.670;5.624;2022-12-18T01:26:15;48.40;;;21.80;;
63193;SDS011;49289;51.670;5.624;2022-12-18T01:28:01;46.40;;;21.90;;
63193;SDS011;49289;51.670;5.624;2022-12-18T01:29:49;46.70;;;21.20;;
63193;SDS011;49289;51.670;5.624;2022-12-18T01:31:38;44.90;;;21.40;;
63193;SDS011;49289;51.670;5.624;2022-12-18T01:33:26;45.50;;;21.20;;
63193;SDS011;49289;51.670;5.624;2022-12-18T01:35:13;40.70;;;20.60;;
63193;SDS011;49289;51.670;5.624;2022-12-18T01:37:01;44.90;;;20.20;;
63193;SDS011;49289;51.670;5.624;2022-12-18T01:38:49;44.00;;;20.50;;
63193;SDS011;49289;51.670;5.624;2022-12-18T01:40:37;45.60;;;21.10;;
63193;SDS011;49289;51.670;5.624;2022-12-18T01:42:26;42.70;;;21.60;;
63193;SDS011;49289;51.670;5.624;2022-12-18T01:46:31;42.80;;;20.30;;
63193;SDS011;49289;51.670;5.624;2022-12-18T01:48:19;43.10;;;21.20;;
63193;SDS011;49289;51.670;5.624;2022-12-18T01:50:09;42.00;;;20.40;;
63193;SDS011;49289;51.670;5.624;2022-12-18T01:51:55;42.00;;;20.50;;
63193;SDS011;49289;51.670;5.624;2022-12-18T01:53:42;43.50;;;21.50;;
63193;SDS011;49289;51.670;5.624;2022-12-18T01:55:30;41.80;;;20.30;;
63193;SDS011;49289;51.670;5.624;2022-12-18T01:57:16;42.20;;;20.20;;
63193;SDS011;49289;51.670;5.624;2022-12-18T01:59:05;39.70;;;20.00;;
63193;SDS011;49289;51.670;5.624;2022-12-18T02:00:52;39.80;;;19.60;;
63193;SDS011;49289;51.670;5.624;2022-12-18T02:02:41;47.10;;;20.60;;
63193;SDS011;49289;51.670;5.624;2022-12-18T02:04:29;41.10;;;19.90;;
63193;SDS011;49289;51.670;5.624;2022-12-18T02:06:19;39.80;;;19.80;;
63193;SDS011;49289;51.670;5.624;2022-12-18T02:08:06;39.30;;;19.90;;
63193;SDS011;49289;51.670;5.624;2022-12-18T02:09:56;42.50;;;20.30;;
63193;SDS011;49289;51.670;5.624;2022-12-18T02:11:45;41.70;;;20.20;;
63193;SDS011;49289;51.670;5.624;2022-12-18T02:13:36;41.80;;;19.70;;
63193;SDS011;49289;51.670;5.624;2022-12-18T02:15:24;40.30;;;20.50;;
63193;SDS011;49289;51.670;5.624;2022-12-18T02:17:11;38.70;;;19.20;;
63193;SDS011;49289;51.670;5.624;2022-12-18T02:18:57;38.70;;;19.60;;
63193;SDS011;49289;51.670;5.624;2022-12-18T02:20:45;39.00;;;19.40;;
63193;SDS011;49289;51.670;5.624;2022-12-18T02:22:34;37.30;;;18.90;;
63193;SDS011;49289;51.670;5.624;2022-12-18T02:24:24;35.60;;;18.90;;
63193;SDS011;49289;51.670;5.624;2022-12-18T02:26:17;35.20;;;18.80;;
63193;SDS011;49289;51.670;5.624;2022-12-18T02:28:06;39.00;;;19.40;;
63193;SDS011;49289;51.670;5.624;2022-12-18T02:29:54;38.10;;;18.80;;
63193;SDS011;49289;51.670;5.624;2022-12-18T02:31:43;37.70;;;18.70;;
63193;SDS011;49289;51.670;5.624;2022-12-18T02:33:30;34.60;;;18.30;;
63193;SDS011;49289;51.670;5.624;2022-12-18T02:35:19;35.20;;;18.30;;
63193;SDS011;49289;51.670;5.624;2022-12-18T02:37:07;35.40;;;18.30;;
63193;SDS011;49289;51.670;5.624;2022-12-18T02:38:55;36.60;;;18.40;;
63193;SDS011;49289;51.670;5.624;2022-12-18T02:40:43;36.00;;;18.50;;
63193;SDS011;49289;51.670;5.624;2022-12-18T02:42:31;34.40;;;18.10;;
63193;SDS011;49289;51.670;5.624;2022-12-18T02:44:20;34.70;;;17.60;;
63193;SDS011;49289;51.670;5.624;2022-12-18T02:48:11;35.60;;;18.80;;
63193;SDS011;49289;51.670;5.624;2022-12-18T02:50:01;35.10;;;17.70;;
63193;SDS011;49289;51.670;5.624;2022-12-18T02:51:50;33.50;;;17.60;;
63193;SDS011;49289;51.670;5.624;2022-12-18T02:53:39;34.20;;;17.90;;
63193;SDS011;49289;51.670;5.624;2022-12-18T02:55:30;36.70;;;17.80;;
63193;SDS011;49289;51.670;5.624;2022-12-18T02:57:19;37.80;;;18.20;;
63193;SDS011;49289;51.670;5.624;2022-12-18T02:59:06;30.70;;;17.10;;
63193;SDS011;49289;51.670;5.624;2022-12-18T03:00:56;33.60;;;17.40;;
63193;SDS011;49289;51.670;5.624;2022-12-18T03:02:44;31.70;;;16.80;;
63193;SDS011;49289;51.670;5.624;2022-12-18T03:04:32;35.30;;;18.20;;
63193;SDS011;49289;51.670;5.624;2022-12-18T03:06:21;32.20;;;17.00;;
63193;SDS011;49289;51.670;5.624;2022-12-18T03:08:08;34.10;;;17.70;;
63193;SDS011;49289;51.670;5.624;2022-12-18T03:09:55;33.50;;;17.30;;
63193;SDS011;49289;51.670;5.624;2022-12-18T03:11:43;32.60;;;17.00;;
63193;SDS011;49289;51.670;5.624;2022-12-18T03:12:41;32.90;;;17.10;;
63193;SDS011;49289;51.670;5.624;2022-12-18T03:14:29;33.50;;;17.40;;
63193;SDS011;49289;51.670;5.624;2022-12-18T03:16:16;34.10;;;16.50;;
63193;SDS011;49289;51.670;5.624;2022-12-18T03:18:03;33.60;;;17.30;;
63193;SDS011;49289;51.670;5.624;2022-12-18T03:19:51;31.70;;;16.90;;
63193;SDS011;49289;51.670;5.624;2022-12-18T03:21:41;35.40;;;17.20;;
63193;SDS011;49289;51.670;5.624;2022-12-18T03:23:29;32.20;;;17.50;;
63193;SDS011;49289;51.670;5.624;2022-12-18T03:25:15;32.30;;;16.50;;
63193;SDS011;49289;51.670;5.624;2022-12-18T03:27:04;32.40;;;17.20;;
63193;SDS011;49289;51.670;5.624;2022-12-18T03:28:51;33.20;;;16.70;;
63193;SDS011;49289;51.670;5.624;2022-12-18T03:30:39;32.90;;;16.30;;
63193;SDS011;49289;51.670;5.624;2022-12-18T03:32:27;32.80;;;16.20;;
63193;SDS011;49289;51.670;5.624;2022-12-18T03:34:16;32.40;;;16.60;;
63193;SDS011;49289;51.670;5.624;2022-12-18T03:36:02;33.10;;;16.70;;
63193;SDS011;49289;51.670;5.624;2022-12-18T03:37:49;32.60;;;16.90;;
63193;SDS011;49289;51.670;5.624;2022-12-18T03:39:36;31.00;;;16.90;;
63193;SDS011;49289;51.670;5.624;2022-12-18T03:41:25;33.80;;;16.90;;
63193;SDS011;49289;51.670;5.624;2022-12-18T03:43:13;31.50;;;16.70;;
63193;SDS011;49289;51.670;5.624;2022-12-18T03:45:02;33.30;;;16.40;;
63193;SDS011;49289;51.670;5.624;2022-12-18T03:46:51;29.70;;;16.30;;
63193;SDS011;49289;51.670;5.624;2022-12-18T03:48:38;33.50;;;16.90;;
63193;SDS011;49289;51.670;5.624;2022-12-18T03:50:27;31.50;;;16.40;;
63193;SDS011;49289;51.670;5.624;2022-12-18T03:52:17;29.70;;;16.00;;
63193;SDS011;49289;51.670;5.624;2022-12-18T03:54:04;29.90;;;16.30;;
63193;SDS011;49289;51.670;5.624;2022-12-18T03:55:52;29.20;;;16.20;;
63193;SDS011;49289;51.670;5.624;2022-12-18T03:57:40;29.60;;;16.60;;
63193;SDS011;49289;51.670;5.624;2022-12-18T03:59:28;30.10;;;16.20;;
63193;SDS011;49289;51.670;5.624;2022-12-18T04:01:15;31.80;;;17.10;;
63193;SDS011;49289;51.670;5.624;2022-12-18T04:03:02;31.10;;;16.50;;
63193;SDS011;49289;51.670;5.624;2022-12-18T04:04:49;30.60;;;16.80;;
63193;SDS011;49289;51.670;5.624;2022-12-18T04:06:37;29.20;;;15.50;;
63193;SDS011;49289;51.670;5.624;2022-12-18T04:08:26;27.30;;;15.60;;
63193;SDS011;49289;51.670;5.624;2022-12-18T04:10:13;29.00;;;14.90;;
63193;SDS011;49289;51.670;5.624;2022-12-18T04:12:00;27.80;;;15.20;;
63193;SDS011;49289;51.670;5.624;2022-12-18T04:13:47;27.30;;;15.20;;
63193;SDS011;49289;51.670;5.624;2022-12-18T04:15:34;26.00;;;14.20;;
63193;SDS011;49289;51.670;5.624;2022-12-18T04:17:22;29.00;;;14.80;;
63193;SDS011;49289;51.670;5.624;2022-12-18T04:19:11;26.80;;;14.90;;
63193;SDS011;49289;51.670;5.624;2022-12-18T04:20:59;26.30;;;14.30;;
63193;SDS011;49289;51.670;5.624;2022-12-18T04:22:46;26.90;;;14.90;;
63193;SDS011;49289;51.670;5.624;2022-12-18T04:24:33;26.70;;;15.00;;
63193;SDS011;49289;51.670;5.624;2022-12-18T04:26:22;25.70;;;13.50;;
63193;SDS011;49289;51.670;5.624;2022-12-18T04:28:10;27.00;;;13.60;;
63193;SDS011;49289;51.670;5.624;2022-12-18T04:29:57;24.30;;;14.10;;
63193;SDS011;49289;51.670;5.624;2022-12-18T04:31:45;26.30;;;14.50;;
63193;SDS011;49289;51.670;5.624;2022-12-18T04:33:33;28.30;;;14.90;;
63193;SDS011;49289;51.670;5.624;2022-12-18T04:35:22;23.90;;;13.70;;
63193;SDS011;49289;51.670;5.624;2022-12-18T04:37:10;24.00;;;13.40;;
63193;SDS011;49289;51.670;5.624;2022-12-18T04:38:58;26.50;;;13.90;;
63193;SDS011;49289;51.670;5.624;2022-12-18T04:40:46;23.20;;;13.40;;
63193;SDS011;49289;51.670;5.624;2022-12-18T04:43:10;23.30;;;13.30;;
63193;SDS011;49289;51.670;5.624;2022-12-18T04:45:00;25.10;;;13.60;;
63193;SDS011;49289;51.670;5.624;2022-12-18T04:46:50;24.20;;;13.50;;
63193;SDS011;49289;51.670;5.624;2022-12-18T04:48:38;24.00;;;13.80;;
63193;SDS011;49289;51.670;5.624;2022-12-18T04:50:26;23.90;;;13.20;;
63193;SDS011;49289;51.670;5.624;2022-12-18T04:52:14;25.40;;;13.10;;
63193;SDS011;49289;51.670;5.624;2022-12-18T04:54:02;23.30;;;12.80;;
63193;SDS011;49289;51.670;5.624;2022-12-18T04:55:49;23.90;;;12.70;;
63193;SDS011;49289;51.670;5.624;2022-12-18T04:57:21;24.80;;;13.90;;
63193;SDS011;49289;51.670;5.624;2022-12-18T04:59:08;22.80;;;13.10;;
63193;SDS011;49289;51.670;5.624;2022-12-18T05:00:56;21.70;;;13.10;;
63193;SDS011;49289;51.670;5.624;2022-12-18T05:02:45;23.80;;;12.90;;
63193;SDS011;49289;51.670;5.624;2022-12-18T05:04:32;22.50;;;12.70;;
63193;SDS011;49289;51.670;5.624;2022-12-18T05:06:19;22.20;;;12.70;;
63193;SDS011;49289;51.670;5.624;2022-12-18T05:08:07;22.60;;;12.60;;
63193;SDS011;49289;51.670;5.624;2022-12-18T05:09:55;20.10;;;11.70;;
63193;SDS011;49289;51.670;5.624;2022-12-18T05:11:43;21.50;;;12.70;;
63193;SDS011;49289;51.670;5.624;2022-12-18T05:13:32;20.70;;;12.70;;
63193;SDS011;49289;51.670;5.624;2022-12-18T05:15:20;22.20;;;12.70;;
63193;SDS011;49289;51.670;5.624;2022-12-18T05:17:07;22.30;;;12.40;;
63193;SDS011;49289;51.670;5.624;2022-12-18T05:18:54;24.80;;;12.70;;
63193;SDS011;49289;51.670;5.624;2022-12-18T05:20:41;21.10;;;12.00;;
63193;SDS011;49289;51.670;5.624;2022-12-18T05:22:28;21.10;;;12.40;;
63193;SDS011;49289;51.670;5.624;2022-12-18T05:24:16;19.70;;;12.30;;
63193;SDS011;49289;51.670;5.624;2022-12-18T05:26:05;21.40;;;12.30;;
63193;SDS011;49289;51.670;5.624;2022-12-18T05:27:52;20.70;;;12.30;;
63193;SDS011;49289;51.670;5.624;2022-12-18T05:29:40;22.00;;;12.60;;
63193;SDS011;49289;51.670;5.624;2022-12-18T05:31:29;22.50;;;13.50;;
63193;SDS011;49289;51.670;5.624;2022-12-18T05:33:17;24.10;;;12.90;;
63193;SDS011;49289;51.670;5.624;2022-12-18T05:35:05;21.50;;;12.30;;
63193;SDS011;49289;51.670;5.624;2022-12-18T05:36:52;20.70;;;12.50;;
63193;SDS011;49289;51.670;5.624;2022-12-18T05:38:39;22.30;;;12.00;;
63193;SDS011;49289;51.670;5.624;2022-12-18T05:40:26;22.30;;;12.70;;
63193;SDS011;49289;51.670;5.624;2022-12-18T05:42:13;23.10;;;12.80;;
63193;SDS011;49289;51.670;5.624;2022-12-18T05:44:01;21.00;;;12.40;;
63193;SDS011;49289;51.670;5.624;2022-12-18T05:45:50;22.20;;;12.30;;
63193;SDS011;49289;51.670;5.624;2022-12-18T05:47:38;22.00;;;11.90;;
63193;SDS011;49289;51.670;5.624;2022-12-18T05:49:26;23.60;;;12.10;;
63193;SDS011;49289;51.670;5.624;2022-12-18T05:51:14;21.70;;;12.40;;
63193;SDS011;49289;51.670;5.624;2022-12-18T05:53:02;24.60;;;13.20;;
63193;SDS011;49289;51.670;5.624;2022-12-18T05:54:52;23.40;;;12.90;;
63193;SDS011;49289;51.670;5.624;2022-12-18T05:56:40;24.60;;;12.90;;
63193;SDS011;49289;51.670;5.624;2022-12-18T05:58:28;21.70;;;12.90;;
63193;SDS011;49289;51.670;5.624;2022-12-18T06:00:17;23.00;;;13.10;;
63193;SDS011;49289;51.670;5.624;2022-12-18T06:02:04;21.80;;;12.50;;
63193;SDS011;49289;51.670;5.624;2022-12-18T06:03:51;25.30;;;13.20;;
63193;SDS011;49289;51.670;5.624;2022-12-18T06:05:41;22.70;;;12.70;;
63193;SDS011;49289;51.670;5.624;2022-12-18T06:07:28;24.60;;;13.50;;
63193;SDS011;49289;51.670;5.624;2022-12-18T06:09:16;22.00;;;12.80;;
63193;SDS011;49289;51.670;5.624;2022-12-18T06:11:03;23.10;;;12.90;;
63193;SDS011;49289;51.670;5.624;2022-12-18T06:12:50;21.00;;;12.80;;
63193;SDS011;49289;51.670;5.624;2022-12-18T06:14:37;22.90;;;12.50;;
63193;SDS011;49289;51.670;5.624;2022-12-18T06:16:24;22.40;;;12.80;;
63193;SDS011;49289;51.670;5.624;2022-12-18T06:18:11;20.40;;;12.40;;
63193;SDS011;49289;51.670;5.624;2022-12-18T06:19:58;19.80;;;12.10;;
63193;SDS011;49289;51.670;5.624;2022-12-18T06:21:45;23.00;;;13.20;;
63193;SDS011;49289;51.670;5.624;2022-12-18T06:23:32;24.40;;;12.70;;
63193;SDS011;49289;51.670;5.624;2022-12-18T06:25:19;21.30;;;12.50;;
63193;SDS011;49289;51.670;5.624;2022-12-18T06:27:07;20.40;;;12.70;;
63193;SDS011;49289;51.670;5.624;2022-12-18T06:28:55;23.10;;;12.80;;
63193;SDS011;49289;51.670;5.624;2022-12-18T06:30:43;22.10;;;13.20;;
63193;SDS011;49289;51.670;5.624;2022-12-18T06:32:31;25.50;;;13.50;;
63193;SDS011;49289;51.670;5.624;2022-12-18T06:34:19;20.90;;;12.40;;
63193;SDS011;49289;51.670;5.624;2022-12-18T06:36:09;23.40;;;13.10;;
63193;SDS011;49289;51.670;5.624;2022-12-18T06:37:56;21.70;;;13.00;;
63193;SDS011;49289;51.670;5.624;2022-12-18T06:39:44;20.40;;;11.80;;
63193;SDS011;49289;51.670;5.624;2022-12-18T06:41:32;23.10;;;12.80;;
63193;SDS011;49289;51.670;5.624;2022-12-18T06:43:21;23.10;;;12.80;;
63193;SDS011;49289;51.670;5.624;2022-12-18T06:45:10;22.30;;;12.10;;
63193;SDS011;49289;51.670;5.624;2022-12-18T06:46:57;21.60;;;12.70;;
63193;SDS011;49289;51.670;5.624;2022-12-18T06:48:45;23.20;;;13.30;;
63193;SDS011;49289;51.670;5.624;2022-12-18T06:50:34;21.10;;;12.30;;
63193;SDS011;49289;51.670;5.624;2022-12-18T06:52:21;20.00;;;11.90;;
63193;SDS011;49289;51.670;5.624;2022-12-18T06:54:10;24.20;;;12.60;;
63193;SDS011;49289;51.670;5.624;2022-12-18T06:55:58;20.90;;;12.50;;
63193;SDS011;49289;51.670;5.624;2022-12-18T06:57:45;24.00;;;13.30;;
63193;SDS011;49289;51.670;5.624;2022-12-18T06:59:32;20.90;;;12.70;;
63193;SDS011;49289;51.670;5.624;2022-12-18T07:01:19;21.30;;;12.70;;
63193;SDS011;49289;51.670;5.624;2022-12-18T07:03:07;21.20;;;12.40;;
63193;SDS011;49289;51.670;5.624;2022-12-18T07:04:54;23.20;;;12.40;;
63193;SDS011;49289;51.670;5.624;2022-12-18T07:06:41;21.90;;;12.60;;
63193;SDS011;49289;51.670;5.624;2022-12-18T07:08:29;23.80;;;13.10;;
63193;SDS011;49289;51.670;5.624;2022-12-18T07:10:18;22.90;;;12.80;;
63193;SDS011;49289;51.670;5.624;2022-12-18T07:12:06;22.30;;;12.90;;
63193;SDS011;49289;51.670;5.624;2022-12-18T07:13:54;20.10;;;12.40;;
63193;SDS011;49289;51.670;5.624;2022-12-18T07:15:42;21.20;;;12.50;;
63193;SDS011;49289;51.670;5.624;2022-12-18T07:17:29;22.00;;;13.20;;
63193;SDS011;49289;51.670;5.624;2022-12-18T07:19:17;21.30;;;12.70;;
63193;SDS011;49289;51.670;5.624;2022-12-18T07:21:09;23.90;;;13.60;;
63193;SDS011;49289;51.670;5.624;2022-12-18T07:22:55;20.70;;;12.60;;
63193;SDS011;49289;51.670;5.624;2022-12-18T07:24:44;21.60;;;12.90;;
63193;SDS011;49289;51.670;5.624;2022-12-18T07:26:32;22.80;;;12.90;;
63193;SDS011;49289;51.670;5.624;2022-12-18T07:28:19;22.20;;;12.30;;
63193;SDS011;49289;51.670;5.624;2022-12-18T07:30:06;21.10;;;12.40;;
63193;SDS011;49289;51.670;5.624;2022-12-18T07:31:54;21.60;;;13.10;;
63193;SDS011;49289;51.670;5.624;2022-12-18T07:33:44;25.00;;;13.30;;
63193;SDS011;49289;51.670;5.624;2022-12-18T07:35:32;21.90;;;12.50;;
63193;SDS011;49289;51.670;5.624;2022-12-18T07:37:19;21.70;;;13.20;;
63193;SDS011;49289;51.670;5.624;2022-12-18T07:39:06;21.70;;;12.80;;
63193;SDS011;49289;51.670;5.624;2022-12-18T07:40:53;22.40;;;12.60;;
63193;SDS011;49289;51.670;5.624;2022-12-18T07:42:40;24.00;;;13.10;;
63193;SDS011;49289;51.670;5.624;2022-12-18T07:44:28;22.20;;;12.30;;
63193;SDS011;49289;51.670;5.624;2022-12-18T07:46:18;22.30;;;13.50;;
63193;SDS011;49289;51.670;5.624;2022-12-18T07:48:06;24.60;;;13.80;;
63193;SDS011;49289;51.670;5.624;2022-12-18T07:49:53;21.40;;;13.10;;
63193;SDS011;49289;51.670;5.624;2022-12-18T07:51:40;24.20;;;13.40;;
63193;SDS011;49289;51.670;5.624;2022-12-18T07:53:27;22.70;;;13.60;;
63193;SDS011;49289;51.670;5.624;2022-12-18T07:55:15;22.70;;;13.30;;
63193;SDS011;49289;51.670;5.624;2022-12-18T07:57:03;23.30;;;13.30;;
63193;SDS011;49289;51.670;5.624;2022-12-18T07:58:51;21.70;;;13.20;;
63193;SDS011;49289;51.670;5.624;2022-12-18T08:00:40;23.30;;;13.20;;
63193;SDS011;49289;51.670;5.624;2022-12-18T08:02:28;22.90;;;13.70;;
63193;SDS011;49289;51.670;5.624;2022-12-18T08:04:17;24.50;;;14.20;;
63193;SDS011;49289;51.670;5.624;2022-12-18T08:06:05;24.10;;;13.40;;
63193;SDS011;49289;51.670;5.624;2022-12-18T08:07:53;22.80;;;13.30;;
63193;SDS011;49289;51.670;5.624;2022-12-18T08:09:41;22.40;;;13.00;;
63193;SDS011;49289;51.670;5.624;2022-12-18T08:11:29;25.40;;;13.80;;
63193;SDS011;49289;51.670;5.624;2022-12-18T08:13:17;21.60;;;13.10;;
63193;SDS011;49289;51.670;5.624;2022-12-18T08:15:05;23.70;;;13.50;;
63193;SDS011;49289;51.670;5.624;2022-12-18T08:16:53;23.60;;;13.70;;
63193;SDS011;49289;51.670;5.624;2022-12-18T08:18:40;21.40;;;13.00;;
63193;SDS011;49289;51.670;5.624;2022-12-18T08:20:27;22.40;;;13.00;;
63193;SDS011;49289;51.670;5.624;2022-12-18T08:22:15;21.90;;;13.10;;
63193;SDS011;49289;51.670;5.624;2022-12-18T08:24:03;21.80;;;13.00;;
63193;SDS011;49289;51.670;5.624;2022-12-18T08:25:53;21.80;;;13.50;;
63193;SDS011;49289;51.670;5.624;2022-12-18T08:27:41;24.50;;;13.60;;
63193;SDS011;49289;51.670;5.624;2022-12-18T08:29:30;21.00;;;12.70;;
63193;SDS011;49289;51.670;5.624;2022-12-18T08:31:18;23.70;;;13.10;;
63193;SDS011;49289;51.670;5.624;2022-12-18T08:33:07;21.30;;;12.80;;
63193;SDS011;49289;51.670;5.624;2022-12-18T08:34:55;24.00;;;13.40;;
63193;SDS011;49289;51.670;5.624;2022-12-18T08:36:42;20.80;;;13.20;;
63193;SDS011;49289;51.670;5.624;2022-12-18T08:38:29;23.30;;;13.30;;
63193;SDS011;49289;51.670;5.624;2022-12-18T08:40:17;22.00;;;13.10;;
63193;SDS011;49289;51.670;5.624;2022-12-18T08:42:05;24.70;;;14.00;;
63193;SDS011;49289;51.670;5.624;2022-12-18T08:43:54;22.00;;;12.80;;
63193;SDS011;49289;51.670;5.624;2022-12-18T08:45:42;24.60;;;13.50;;
63193;SDS011;49289;51.670;5.624;2022-12-18T08:47:30;22.90;;;13.20;;
63193;SDS011;49289;51.670;5.624;2022-12-18T08:49:18;22.40;;;13.70;;
63193;SDS011;49289;51.670;5.624;2022-12-18T08:51:05;22.80;;;13.30;;
63193;SDS011;49289;51.670;5.624;2022-12-18T08:52:52;23.90;;;13.40;;
63193;SDS011;49289;51.670;5.624;2022-12-18T08:54:40;23.90;;;13.50;;
63193;SDS011;49289;51.670;5.624;2022-12-18T08:56:30;23.60;;;14.00;;
63193;SDS011;49289;51.670;5.624;2022-12-18T08:58:18;22.70;;;13.40;;
63193;SDS011;49289;51.670;5.624;2022-12-18T09:00:06;23.40;;;13.30;;
63193;SDS011;49289;51.670;5.624;2022-12-18T09:01:55;21.30;;;13.20;;
63193;SDS011;49289;51.670;5.624;2022-12-18T09:03:43;21.50;;;13.50;;
63193;SDS011;49289;51.670;5.624;2022-12-18T09:05:31;23.10;;;13.40;;
63193;SDS011;49289;51.670;5.624;2022-12-18T09:07:20;21.60;;;13.30;;
63193;SDS011;49289;51.670;5.624;2022-12-18T09:09:09;24.80;;;13.70;;
63193;SDS011;49289;51.670;5.624;2022-12-18T09:10:55;27.50;;;13.90;;
63193;SDS011;49289;51.670;5.624;2022-12-18T09:12:43;22.80;;;13.50;;
63193;SDS011;49289;51.670;5.624;2022-12-18T09:14:31;22.00;;;13.40;;
63193;SDS011;49289;51.670;5.624;2022-12-18T09:16:20;22.10;;;13.00;;
63193;SDS011;49289;51.670;5.624;2022-12-18T09:18:08;19.90;;;12.30;;
63193;SDS011;49289;51.670;5.624;2022-12-18T09:19:55;23.10;;;13.10;;
63193;SDS011;49289;51.670;5.624;2022-12-18T09:21:42;21.90;;;13.70;;
63193;SDS011;49289;51.670;5.624;2022-12-18T09:23:30;20.40;;;12.30;;
63193;SDS011;49289;51.670;5.624;2022-12-18T09:25:20;21.80;;;13.10;;
63193;SDS011;49289;51.670;5.624;2022-12-18T09:27:07;18.40;;;11.90;;
63193;SDS011;49289;51.670;5.624;2022-12-18T09:28:54;20.70;;;12.40;;
63193;SDS011;49289;51.670;5.624;2022-12-18T09:30:43;23.10;;;13.50;;
63193;SDS011;49289;51.670;5.624;2022-12-18T09:32:29;21.90;;;12.90;;
63193;SDS011;49289;51.670;5.624;2022-12-18T09:34:18;20.70;;;12.80;;
63193;SDS011;49289;51.670;5.624;2022-12-18T09:36:08;20.30;;;12.40;;
63193;SDS011;49289;51.670;5.624;2022-12-18T09:37:55;20.50;;;12.80;;
63193;SDS011;49289;51.670;5.624;2022-12-18T09:39:43;21.70;;;12.50;;
63193;SDS011;49289;51.670;5.624;2022-12-18T09:41:43;22.80;;;12.20;;
63193;SDS011;49289;51.670;5.624;2022-12-18T09:43:33;22.20;;;13.10;;
63193;SDS011;49289;51.670;5.624;2022-12-18T09:45:21;22.10;;;12.80;;
63193;SDS011;49289;51.670;5.624;2022-12-18T09:47:11;21.40;;;12.60;;
63193;SDS011;49289;51.670;5.624;2022-12-18T09:49:00;22.20;;;13.00;;
63193;SDS011;49289;51.670;5.624;2022-12-18T09:50:46;21.20;;;12.60;;
63193;SDS011;49289;51.670;5.624;2022-12-18T09:52:33;21.90;;;13.00;;
63193;SDS011;49289;51.670;5.624;2022-12-18T09:54:22;23.30;;;13.30;;
63193;SDS011;49289;51.670;5.624;2022-12-18T09:56:10;21.80;;;12.80;;
63193;SDS011;49289;51.670;5.624;2022-12-18T09:57:59;21.90;;;12.80;;
63193;SDS011;49289;51.670;5.624;2022-12-18T09:59:46;20.60;;;12.80;;
63193;SDS011;49289;51.670;5.624;2022-12-18T10:01:34;21.90;;;12.80;;
63193;SDS011;49289;51.670;5.624;2022-12-18T10:03:22;21.00;;;12.80;;
63193;SDS011;49289;51.670;5.624;2022-12-18T10:05:11;20.20;;;12.40;;
63193;SDS011;49289;51.670;5.624;2022-12-18T10:06:59;20.90;;;12.80;;
63193;SDS011;49289;51.670;5.624;2022-12-18T10:08:46;20.50;;;12.30;;
63193;SDS011;49289;51.670;5.624;2022-12-18T10:10:37;21.00;;;12.80;;
63193;SDS011;49289;51.670;5.624;2022-12-18T10:12:26;21.40;;;12.90;;
63193;SDS011;49289;51.670;5.624;2022-12-18T10:14:16;21.90;;;12.90;;
63193;SDS011;49289;51.670;5.624;2022-12-18T10:16:08;20.10;;;12.50;;
63193;SDS011;49289;51.670;5.624;2022-12-18T10:17:58;18.50;;;12.30;;
63193;SDS011;49289;51.670;5.624;2022-12-18T10:19:47;22.60;;;12.70;;
63193;SDS011;49289;51.670;5.624;2022-12-18T10:21:37;21.00;;;12.50;;
63193;SDS011;49289;51.670;5.624;2022-12-18T10:23:25;20.90;;;12.40;;
63193;SDS011;49289;51.670;5.624;2022-12-18T10:25:14;21.00;;;12.70;;
63193;SDS011;49289;51.670;5.624;2022-12-18T10:27:06;21.00;;;13.30;;
63193;SDS011;49289;51.670;5.624;2022-12-18T10:28:54;20.30;;;12.70;;
63193;SDS011;49289;51.670;5.624;2022-12-18T10:30:41;19.20;;;11.90;;
63193;SDS011;49289;51.670;5.624;2022-12-18T10:32:28;19.80;;;12.00;;
63193;SDS011;49289;51.670;5.624;2022-12-18T10:34:15;20.60;;;12.00;;